Observation data for Spur on 02/14/2020      Previous  Date  Next       Current Mesonet Observations  Soil Data  Daily Summary Page  Observations in Plain Language
KSP1 140600Z 07004KT M03/M06 A3034 RMK A01 T10281056  RH  081%=      5-min Rain = 0
KSP1 140605Z 07004KT M03/M06 A3034 RMK A01 T10281055  RH  082%=      5-min Rain = 0
KSP1 140610Z 07005KT M03/M06 A3034 RMK A01 T10291056  RH  082%=      5-min Rain = 0
KSP1 140615Z 07004KT M03/M06 A3034 RMK A01 T10311056  RH  083%=      5-min Rain = 0
KSP1 140620Z 07005KT M03/M06 A3034 RMK A01 T10321057  RH  083%=      5-min Rain = 0
KSP1 140625Z 07005KT M03/M06 A3034 RMK A01 T10321057  RH  083%=      5-min Rain = 0
KSP1 140630Z 07006KT M03/M06 A3034 RMK A01 T10331059  RH  082%=      5-min Rain = 0
KSP1 140635Z 07006KT M03/M06 A3034 RMK A01 T10331060  RH  082%=      5-min Rain = 0
KSP1 140640Z 07006KT M03/M06 A3034 RMK A01 T10331061  RH  081%=      5-min Rain = 0
KSP1 140645Z 07006KT M03/M06 A3034 RMK A01 T10341063  RH  080%=      5-min Rain = 0
KSP1 140650Z 08006KT M03/M07 A3034 RMK A01 T10341065  RH  079%=      5-min Rain = 0
KSP1 140655Z 08006KT M03/M07 A3034 RMK A01 T10341066  RH  079%=      5-min Rain = 0
KSP1 140700Z 08005KT M04/M07 A3034 RMK A01 T10351067  RH  078%=      5-min Rain = 0
KSP1 140705Z 07005KT M04/M07 A3034 RMK A01 T10351067  RH  079%=      5-min Rain = 0
KSP1 140710Z 08004KT M04/M07 A3034 RMK A01 T10361067  RH  080%=      5-min Rain = 0
KSP1 140715Z 07003KT M04/M07 A3034 RMK A01 T10371066  RH  080%=      5-min Rain = 0
KSP1 140720Z 07004KT M04/M07 A3034 RMK A01 T10381066  RH  081%=      5-min Rain = 0
KSP1 140725Z 07003KT M04/M07 A3034 RMK A01 T10391066  RH  082%=      5-min Rain = 0
KSP1 140730Z 07004KT M04/M07 A3034 RMK A01 T10391066  RH  082%=      5-min Rain = 0
KSP1 140735Z 07003KT M04/M07 A3034 RMK A01 T10401066  RH  083%=      5-min Rain = 0
KSP1 140740Z 06003KT M04/M07 A3034 RMK A01 T10411065  RH  083%=      5-min Rain = 0
KSP1 140745Z 06003KT M04/M07 A3034 RMK A01 T10421065  RH  084%=      5-min Rain = 0
KSP1 140750Z 06003KT M04/M07 A3034 RMK A01 T10431065  RH  085%=      5-min Rain = 0
KSP1 140755Z 06004KT M04/M07 A3034 RMK A01 T10441066  RH  085%=      5-min Rain = 0
KSP1 140800Z 06004KT M04/M07 A3035 RMK A01 T10441066  RH  085%=      5-min Rain = 0
KSP1 140805Z 06004KT M04/M07 A3034 RMK A01 T10441067  RH  084%=      5-min Rain = 0
KSP1 140810Z 06004KT M05/M07 A3034 RMK A01 T10451067  RH  084%=      5-min Rain = 0
KSP1 140815Z 05004KT M05/M07 A3035 RMK A01 T10451068  RH  084%=      5-min Rain = 0
KSP1 140820Z 05003KT M05/M07 A3034 RMK A01 T10461067  RH  085%=      5-min Rain = 0
KSP1 140825Z 05004KT M05/M07 A3034 RMK A01 T10461066  RH  086%=      5-min Rain = 0
KSP1 140830Z 05003KT M05/M07 A3034 RMK A01 T10461066  RH  086%=      5-min Rain = 0
KSP1 140835Z 04003KT M05/M07 A3034 RMK A01 T10461066  RH  086%=      5-min Rain = 0
KSP1 140840Z 04003KT M05/M07 A3034 RMK A01 T10471066  RH  086%=      5-min Rain = 0
KSP1 140845Z 05004KT M05/M07 A3034 RMK A01 T10471067  RH  086%=      5-min Rain = 0
KSP1 140850Z 05004KT M05/M07 A3034 RMK A01 T10481068  RH  085%=      5-min Rain = 0
KSP1 140855Z 05004KT M05/M07 A3034 RMK A01 T10481069  RH  085%=      5-min Rain = 0
KSP1 140900Z 05004KT M05/M07 A3034 RMK A01 T10491069  RH  085%=      5-min Rain = 0
KSP1 140905Z 05004KT M05/M07 A3035 RMK A01 T10491071  RH  085%=      5-min Rain = 0
KSP1 140910Z 05004KT M05/M07 A3034 RMK A01 T10491070  RH  085%=      5-min Rain = 0
KSP1 140915Z 05004KT M05/M07 A3034 RMK A01 T10491070  RH  085%=      5-min Rain = 0
KSP1 140920Z 05004KT M05/M07 A3034 RMK A01 T10501071  RH  085%=      5-min Rain = 0
KSP1 140925Z 05005KT M05/M07 A3034 RMK A01 T10511072  RH  085%=      5-min Rain = 0
KSP1 140930Z 05005KT M05/M07 A3034 RMK A01 T10511072  RH  085%=      5-min Rain = 0
KSP1 140935Z 05005KT M05/M07 A3034 RMK A01 T10511072  RH  085%=      5-min Rain = 0
KSP1 140940Z 05005KT M05/M07 A3034 RMK A01 T10511072  RH  085%=      5-min Rain = 0
KSP1 140945Z 04005KT M05/M07 A3034 RMK A01 T10511073  RH  085%=      5-min Rain = 0
KSP1 140950Z 05005KT M05/M07 A3034 RMK A01 T10511072  RH  085%=      5-min Rain = 0
KSP1 140955Z 05005KT M05/M07 A3035 RMK A01 T10521073  RH  085%=      5-min Rain = 0
KSP1 141000Z 05005KT M05/M07 A3035 RMK A01 T10521074  RH  085%=      5-min Rain = 0
KSP1 141005Z 05005KT M05/M07 A3035 RMK A01 T10521074  RH  085%=      5-min Rain = 0
KSP1 141010Z 05005KT M05/M07 A3035 RMK A01 T10521074  RH  085%=      5-min Rain = 0
KSP1 141015Z 05005KT M05/M07 A3035 RMK A01 T10531074  RH  085%=      5-min Rain = 0
KSP1 141020Z 05005KT M05/M08 A3035 RMK A01 T10531075  RH  084%=      5-min Rain = 0
KSP1 141025Z 05006KT M05/M08 A3035 RMK A01 T10531075  RH  084%=      5-min Rain = 0
KSP1 141030Z 05006KT M05/M08 A3035 RMK A01 T10531075  RH  084%=      5-min Rain = 0
KSP1 141035Z 05005KT M05/M08 A3035 RMK A01 T10531076  RH  084%=      5-min Rain = 0
KSP1 141040Z 05005KT M05/M08 A3035 RMK A01 T10531076  RH  083%=      5-min Rain = 0
KSP1 141045Z 05005KT M05/M08 A3035 RMK A01 T10531077  RH  083%=      5-min Rain = 0
KSP1 141050Z 05005KT M05/M08 A3035 RMK A01 T10531078  RH  083%=      5-min Rain = 0
KSP1 141055Z 05005KT M05/M08 A3035 RMK A01 T10531077  RH  083%=      5-min Rain = 0
KSP1 141100Z 04006KT M05/M08 A3035 RMK A01 T10531078  RH  083%=      5-min Rain = 0
KSP1 141105Z 04005KT M05/M08 A3035 RMK A01 T10541079  RH  083%=      5-min Rain = 0
KSP1 141110Z 05005KT M05/M08 A3035 RMK A01 T10541079  RH  083%=      5-min Rain = 0
KSP1 141115Z 05006KT M06/M08 A3035 RMK A01 T10551080  RH  082%=      5-min Rain = 0
KSP1 141120Z 04005KT M06/M08 A3035 RMK A01 T10551080  RH  082%=      5-min Rain = 0
KSP1 141125Z 05005KT M06/M08 A3035 RMK A01 T10551080  RH  083%=      5-min Rain = 0
KSP1 141130Z 04005KT M06/M08 A3035 RMK A01 T10551080  RH  082%=      5-min Rain = 0
KSP1 141135Z 04006KT M06/M08 A3035 RMK A01 T10561082  RH  082%=      5-min Rain = 0
KSP1 141140Z 04006KT M06/M08 A3035 RMK A01 T10561082  RH  082%=      5-min Rain = 0
KSP1 141145Z 04005KT M06/M08 A3035 RMK A01 T10561082  RH  082%=      5-min Rain = 0
KSP1 141150Z 04005KT M06/M08 A3035 RMK A01 T10571082  RH  083%=      5-min Rain = 0
KSP1 141155Z 04005KT M06/M08 A3035 RMK A01 T10571082  RH  083%=      5-min Rain = 0
KSP1 141200Z 04005KT M06/M08 A3035 RMK A01 T10581082  RH  083%=      5-min Rain = 0
KSP1 141205Z 04005KT M06/M08 A3035 RMK A01 T10581082  RH  083%=      5-min Rain = 0
KSP1 141210Z 04005KT M06/M08 A3035 RMK A01 T10581082  RH  083%=      5-min Rain = 0
KSP1 141215Z 04005KT M06/M08 A3035 RMK A01 T10571081  RH  083%=      5-min Rain = 0
KSP1 141220Z 05005KT M06/M08 A3035 RMK A01 T10561081  RH  082%=      5-min Rain = 0
KSP1 141225Z 04005KT M06/M08 A3035 RMK A01 T10551081  RH  082%=      5-min Rain = 0
KSP1 141230Z 05005KT M05/M08 A3035 RMK A01 T10541079  RH  082%=      5-min Rain = 0
KSP1 141235Z 05006KT M05/M08 A3035 RMK A01 T10531082  RH  080%=      5-min Rain = 0
KSP1 141240Z 05006KT M05/M08 A3036 RMK A01 T10521081  RH  080%=      5-min Rain = 0
KSP1 141245Z 05006KT M05/M08 A3036 RMK A01 T10511081  RH  080%=      5-min Rain = 0
KSP1 141250Z 05005KT M05/M08 A3036 RMK A01 T10511081  RH  079%=      5-min Rain = 0
KSP1 141255Z 05005KT M05/M08 A3036 RMK A01 T10501080  RH  079%=      5-min Rain = 0
KSP1 141300Z 06005KT M05/M08 A3036 RMK A01 T10491079  RH  079%=      5-min Rain = 0
KSP1 141305Z 07005KT M05/M08 A3036 RMK A01 T10491081  RH  078%=      5-min Rain = 0
KSP1 141310Z 06005KT M05/M08 A3036 RMK A01 T10491080  RH  079%=      5-min Rain = 0
KSP1 141315Z 07004KT M05/M08 A3036 RMK A01 T10491079  RH  079%=      5-min Rain = 0
KSP1 141320Z 07004KT M05/M08 A3036 RMK A01 T10481078  RH  079%=      5-min Rain = 0
KSP1 141325Z 07004KT M05/M08 A3036 RMK A01 T10481079  RH  079%=      5-min Rain = 0
KSP1 141330Z 07004KT M05/M08 A3037 RMK A01 T10471079  RH  078%=      5-min Rain = 0
KSP1 141335Z 07005KT M05/M08 A3037 RMK A01 T10471079  RH  078%=      5-min Rain = 0
KSP1 141340Z 07004KT M05/M08 A3037 RMK A01 T10461079  RH  078%=      5-min Rain = 0
KSP1 141345Z 08005KT M05/M08 A3037 RMK A01 T10461079  RH  078%=      5-min Rain = 0
KSP1 141350Z 07005KT M05/M08 A3037 RMK A01 T10461079  RH  078%=      5-min Rain = 0
KSP1 141355Z 08004KT M05/M08 A3037 RMK A01 T10461078  RH  078%=      5-min Rain = 0
KSP1 141400Z 09004KT M05/M08 A3037 RMK A01 T10451078  RH  078%=      5-min Rain = 0
KSP1 141405Z 09004KT M05/M08 A3037 RMK A01 T10451078  RH  077%=      5-min Rain = 0
KSP1 141410Z 08003KT M05/M08 A3038 RMK A01 T10451078  RH  078%=      5-min Rain = 0
KSP1 141415Z 08003KT M04/M08 A3038 RMK A01 T10441078  RH  077%=      5-min Rain = 0
KSP1 141420Z 08004KT M04/M08 A3038 RMK A01 T10431077  RH  077%=      5-min Rain = 0
KSP1 141425Z 08004KT M04/M08 A3038 RMK A01 T10431077  RH  077%=      5-min Rain = 0
KSP1 141430Z 08005KT M04/M08 A3038 RMK A01 T10421075  RH  078%=      5-min Rain = 0
KSP1 141435Z 09005KT M04/M08 A3038 RMK A01 T10421076  RH  077%=      5-min Rain = 0
KSP1 141440Z 09004KT M04/M08 A3038 RMK A01 T10411075  RH  078%=      5-min Rain = 0
KSP1 141445Z 09005KT M04/M07 A3038 RMK A01 T10401074  RH  078%=      5-min Rain = 0
KSP1 141450Z 08005KT M04/M07 A3038 RMK A01 T10401073  RH  077%=      5-min Rain = 0
KSP1 141455Z 09006KT M04/M07 A3038 RMK A01 T10391074  RH  077%=      5-min Rain = 0
KSP1 141500Z 10005KT M04/M07 A3038 RMK A01 T10381073  RH  077%=      5-min Rain = 0
KSP1 141505Z 11005KT M04/M07 A3038 RMK A01 T10381073  RH  076%=      5-min Rain = 0
KSP1 141510Z 10004KT M04/M07 A3039 RMK A01 T10371073  RH  076%=      5-min Rain = 0
KSP1 141515Z 09004KT M04/M07 A3039 RMK A01 T10371072  RH  076%=      5-min Rain = 0
KSP1 141520Z 09004KT M04/M07 A3039 RMK A01 T10361072  RH  076%=      5-min Rain = 0
KSP1 141525Z 10003KT M03/M07 A3039 RMK A01 T10341070  RH  077%=      5-min Rain = 0
KSP1 141530Z 11005KT M03/M07 A3039 RMK A01 T10341070  RH  076%=      5-min Rain = 0
KSP1 141535Z 10005KT M03/M07 A3039 RMK A01 T10331069  RH  076%=      5-min Rain = 0
KSP1 141540Z 10004KT M03/M07 A3039 RMK A01 T10331069  RH  076%=      5-min Rain = 0
KSP1 141545Z 11004KT M03/M07 A3039 RMK A01 T10321068  RH  076%=      5-min Rain = 0
KSP1 141550Z 11004KT M03/M07 A3039 RMK A01 T10311068  RH  076%=      5-min Rain = 0
KSP1 141555Z 10005KT M03/M07 A3038 RMK A01 T10301066  RH  076%=      5-min Rain = 0
KSP1 141600Z 10005KT M03/M07 A3038 RMK A01 T10291066  RH  076%=      5-min Rain = 0
KSP1 141605Z 11004KT M03/M06 A3038 RMK A01 T10271064  RH  076%=      5-min Rain = 0
KSP1 141610Z 11004KT M03/M06 A3038 RMK A01 T10261064  RH  075%=      5-min Rain = 0
KSP1 141615Z 11005KT M03/M06 A3038 RMK A01 T10251064  RH  075%=      5-min Rain = 0
KSP1 141620Z 13004KT M02/M06 A3038 RMK A01 T10241061  RH  076%=      5-min Rain = 0
KSP1 141625Z 11003KT M02/M06 A3038 RMK A01 T10231062  RH  075%=      5-min Rain = 0
KSP1 141630Z 10004KT M02/M06 A3037 RMK A01 T10231061  RH  075%=      5-min Rain = 0
KSP1 141635Z 10004KT M02/M06 A3037 RMK A01 T10221061  RH  075%=      5-min Rain = 0
KSP1 141640Z 13004KT M02/M06 A3038 RMK A01 T10191058  RH  075%=      5-min Rain = 0
KSP1 141645Z 12004KT M02/M06 A3037 RMK A01 T10171056  RH  075%=      5-min Rain = 0
KSP1 141650Z 13005KT M02/M06 A3037 RMK A01 T10171055  RH  075%=      5-min Rain = 0
KSP1 141655Z 14004KT M02/M05 A3037 RMK A01 T10161053  RH  076%=      5-min Rain = 0
KSP1 141700Z 14005KT M01/M05 A3037 RMK A01 T10131051  RH  076%=      5-min Rain = 0
KSP1 141705Z 14006KT M01/M05 A3037 RMK A01 T10111049  RH  076%=      5-min Rain = 0
KSP1 141710Z 15004KT M01/M05 A3037 RMK A01 T10131051  RH  076%=      5-min Rain = 0
KSP1 141715Z 14005KT M01/M05 A3037 RMK A01 T10101048  RH  076%=      5-min Rain = 0
KSP1 141720Z 15006KT M01/M04 A3037 RMK A01 T10061044  RH  076%=      5-min Rain = 0
KSP1 141725Z 15006KT M00/M04 A3036 RMK A01 T10041044  RH  075%=      5-min Rain = 0
KSP1 141730Z 17006KT M00/M04 A3036 RMK A01 T10041042  RH  076%=      5-min Rain = 0
KSP1 141735Z 17006KT M00/M04 A3036 RMK A01 T10011038  RH  076%=      5-min Rain = 0
KSP1 141740Z 17008KT M00/M04 A3036 RMK A01 T10011040  RH  075%=      5-min Rain = 0
KSP1 141745Z 17005KT 00/04 A3036 RMK A01 T00000-38  RH  076%=      5-min Rain = 0
KSP1 141750Z 16005KT 00/M04 A3035 RMK A01 T00031037  RH  075%=      5-min Rain = 0
KSP1 141755Z 18006KT 01/M03 A3035 RMK A01 T00061033  RH  075%=      5-min Rain = 0
KSP1 141800Z 18007KT 01/M03 A3034 RMK A01 T00051034  RH  076%=      5-min Rain = 0
KSP1 141805Z 18007KT 01/M03 A3034 RMK A01 T00091031  RH  075%=      5-min Rain = 0
KSP1 141810Z 20006KT 01/M03 A3034 RMK A01 T00061034  RH  075%=      5-min Rain = 0
KSP1 141815Z 18005KT 01/M03 A3034 RMK A01 T00091030  RH  076%=      5-min Rain = 0
KSP1 141820Z 20007KT 01/M03 A3033 RMK A01 T00131032  RH  072%=      5-min Rain = 0
KSP1 141825Z 20007KT 02/M03 A3033 RMK A01 T00151030  RH  073%=      5-min Rain = 0
KSP1 141830Z 20007KT 01/M03 A3033 RMK A01 T00131031  RH  073%=      5-min Rain = 0
KSP1 141835Z 19007KT 02/M03 A3033 RMK A01 T00161030  RH  072%=      5-min Rain = 0
KSP1 141840Z 18005KT 02/M03 A3032 RMK A01 T00161032  RH  071%=      5-min Rain = 0
KSP1 141845Z 16005G10KT 02/M03 A3032 RMK A01 T00181031  RH  071%=      5-min Rain = 0
KSP1 141850Z 15006KT 02/M03 A3032 RMK A01 T00161032  RH  071%=      5-min Rain = 0
KSP1 141855Z 17006KT 02/M03 A3031 RMK A01 T00171031  RH  071%=      5-min Rain = 0
KSP1 141900Z 17007KT 02/M03 A3031 RMK A01 T00221027  RH  070%=      5-min Rain = 0
KSP1 141905Z 17009KT 03/M03 A3031 RMK A01 T00251027  RH  069%=      5-min Rain = 0
KSP1 141910Z 18010KT 03/M03 A303 RMK A01 T00251026  RH  069%=      5-min Rain = 0
KSP1 141915Z 20010KT 03/M02 A303 RMK A01 T00281023  RH  070%=      5-min Rain = 0
KSP1 141920Z 19009KT 03/M02 A303 RMK A01 T00251024  RH  071%=      5-min Rain = 0
KSP1 141925Z 18008KT 02/M03 A303 RMK A01 T00231026  RH  071%=      5-min Rain = 0
KSP1 141930Z 19008KT 03/M02 A3029 RMK A01 T00291021  RH  070%=      5-min Rain = 0
KSP1 141935Z 20009KT 03/M02 A3029 RMK A01 T00311022  RH  069%=      5-min Rain = 0
KSP1 141940Z 21007G13KT 03/M02 A3029 RMK A01 T00281022  RH  070%=      5-min Rain = 0
KSP1 141945Z 22008KT 03/M02 A3028 RMK A01 T00301020  RH  070%=      5-min Rain = 0
KSP1 141950Z 20009KT 03/M02 A3028 RMK A01 T00291022  RH  070%=      5-min Rain = 0
KSP1 141955Z 21008G13KT 03/M02 A3028 RMK A01 T00291020  RH  071%=      5-min Rain = 0
KSP1 142000Z 20009KT 03/M02 A3027 RMK A01 T00321019  RH  070%=      5-min Rain = 0
KSP1 142005Z 20009G15KT 04/M02 A3027 RMK A01 T00381016  RH  068%=      5-min Rain = 0
KSP1 142010Z 19011KT 04/M02 A3026 RMK A01 T00371016  RH  069%=      5-min Rain = 0
KSP1 142015Z 20011KT 04/M02 A3026 RMK A01 T00381015  RH  069%=      5-min Rain = 0
KSP1 142020Z 21009G14KT 04/M02 A3026 RMK A01 T00351017  RH  070%=      5-min Rain = 0
KSP1 142025Z 20009G15KT 04/M02 A3026 RMK A01 T00361016  RH  069%=      5-min Rain = 0
KSP1 142030Z 20008KT 04/M02 A3026 RMK A01 T00371015  RH  069%=      5-min Rain = 0
KSP1 142035Z 20008KT 04/M01 A3025 RMK A01 T00391014  RH  069%=      5-min Rain = 0
KSP1 142040Z 21008KT 04/M01 A3025 RMK A01 T00381014  RH  069%=      5-min Rain = 0
KSP1 142045Z 20007KT 04/M01 A3025 RMK A01 T00381014  RH  069%=      5-min Rain = 0
KSP1 142050Z 20009KT 04/M01 A3025 RMK A01 T00421012  RH  069%=      5-min Rain = 0
KSP1 142055Z 21008KT 04/M01 A3025 RMK A01 T00391014  RH  069%=      5-min Rain = 0
KSP1 142100Z 22008KT 04/M01 A3024 RMK A01 T00411012  RH  069%=      5-min Rain = 0
KSP1 142105Z 19007KT 04/M01 A3024 RMK A01 T00431011  RH  069%=      5-min Rain = 0
KSP1 142110Z 20007KT 05/M01 A3024 RMK A01 T00451009  RH  068%=      5-min Rain = 0
KSP1 142115Z 19008KT 04/M01 A3023 RMK A01 T00441011  RH  068%=      5-min Rain = 0
KSP1 142120Z 18008KT 05/M01 A3023 RMK A01 T00481007  RH  068%=      5-min Rain = 0
KSP1 142125Z 21009KT 05/M01 A3023 RMK A01 T00501008  RH  067%=      5-min Rain = 0
KSP1 142130Z 21008KT 05/M01 A3023 RMK A01 T00501007  RH  068%=      5-min Rain = 0
KSP1 142135Z 20008KT 05/M01 A3023 RMK A01 T00501007  RH  067%=      5-min Rain = 0
KSP1 142140Z 21009KT 05/M01 A3023 RMK A01 T00511006  RH  067%=      5-min Rain = 0
KSP1 142145Z 20010KT 05/M01 A3022 RMK A01 T00541005  RH  067%=      5-min Rain = 0
KSP1 142150Z 21009KT 05/M00 A3022 RMK A01 T00541004  RH  067%=      5-min Rain = 0
KSP1 142155Z 21008KT 05/M01 A3022 RMK A01 T00521006  RH  067%=      5-min Rain = 0
KSP1 142200Z 20009KT 05/M00 A3022 RMK A01 T00531004  RH  068%=      5-min Rain = 0
KSP1 142205Z 21009G15KT 06/M00 A3022 RMK A01 T00591001  RH  066%=      5-min Rain = 0
KSP1 142210Z 21010KT 06/M00 A3022 RMK A01 T00601001  RH  066%=      5-min Rain = 0
KSP1 142215Z 20008KT 06/M00 A3021 RMK A01 T00591001  RH  066%=      5-min Rain = 0
KSP1 142220Z 22009KT 06/M00 A3021 RMK A01 T00591001  RH  066%=      5-min Rain = 0
KSP1 142225Z 23009KT 06/00 A3021 RMK A01 T00620002  RH  066%=      5-min Rain = 0
KSP1 142230Z 23009KT 06/00 A3021 RMK A01 T00640002  RH  065%=      5-min Rain = 0
KSP1 142235Z 22009KT 06/00 A302 RMK A01 T00630003  RH  066%=      5-min Rain = 0
KSP1 142240Z 21008KT 07/00 A302 RMK A01 T00650003  RH  066%=      5-min Rain = 0
KSP1 142245Z 20006KT 07/00 A302 RMK A01 T00650004  RH  066%=      5-min Rain = 0
KSP1 142250Z 21009KT 07/00 A302 RMK A01 T00660003  RH  065%=      5-min Rain = 0
KSP1 142255Z 22010KT 07/00 A3019 RMK A01 T00660004  RH  065%=      5-min Rain = 0
KSP1 142300Z 21007KT 07/00 A302 RMK A01 T00650003  RH  066%=      5-min Rain = 0
KSP1 142305Z 22007KT 07/00 A3019 RMK A01 T00650003  RH  065%=      5-min Rain = 0
KSP1 142310Z 23006G11KT 07/00 A3019 RMK A01 T00650002  RH  065%=      5-min Rain = 0
KSP1 142315Z 23007KT 07/00 A3019 RMK A01 T00650004  RH  065%=      5-min Rain = 0
KSP1 142320Z 22007KT 07/00 A3019 RMK A01 T00660004  RH  065%=      5-min Rain = 0
KSP1 142325Z 22006KT 07/00 A3019 RMK A01 T00660004  RH  066%=      5-min Rain = 0
KSP1 142330Z 23007KT 07/01 A3018 RMK A01 T00670006  RH  066%=      5-min Rain = 0
KSP1 142335Z 22007KT 07/01 A3018 RMK A01 T00650005  RH  066%=      5-min Rain = 0
KSP1 142340Z 21007KT 06/00 A3018 RMK A01 T00630004  RH  066%=      5-min Rain = 0
KSP1 142345Z 21006KT 06/00 A3018 RMK A01 T00620004  RH  067%=      5-min Rain = 0
KSP1 142350Z 22006KT 06/00 A3018 RMK A01 T00620004  RH  067%=      5-min Rain = 0
KSP1 142355Z 23006KT 06/00 A3018 RMK A01 T00610004  RH  068%=      5-min Rain = 0
KSP1 150000Z 22005KT 06/00 A3018 RMK A01 T00590004  RH  069%=      5-min Rain = 0
KSP1 150005Z 22004KT 06/00 A3018 RMK A01 T00580004  RH  069%=      5-min Rain = 0
KSP1 150010Z 23003KT 06/00 A3018 RMK A01 T00560004  RH  070%=      5-min Rain = 0
KSP1 150015Z 25003KT 05/00 A3018 RMK A01 T00540002  RH  070%=      5-min Rain = 0
KSP1 150020Z 26003KT 05/M00 A3018 RMK A01 T00521001  RH  070%=      5-min Rain = 0
KSP1 150025Z 27004KT 05/M00 A3018 RMK A01 T00461003  RH  071%=      5-min Rain = 0
KSP1 150030Z 27004KT 04/M00 A3018 RMK A01 T00421004  RH  073%=      5-min Rain = 0
KSP1 150035Z 29003KT 04/M00 A3018 RMK A01 T00401002  RH  075%=      5-min Rain = 0
KSP1 150040Z 29004KT 04/M00 A3018 RMK A01 T00401001  RH  075%=      5-min Rain = 0
KSP1 150045Z 29003KT 04/M00 A3017 RMK A01 T00391001  RH  076%=      5-min Rain = 0
KSP1 150050Z 28004KT 04/M00 A3017 RMK A01 T00371001  RH  077%=      5-min Rain = 0
KSP1 150055Z 29003KT 04/M00 A3017 RMK A01 T00351001  RH  078%=      5-min Rain = 0
KSP1 150100Z 29003KT 03/M00 A3017 RMK A01 T00331003  RH  078%=      5-min Rain = 0
KSP1 150105Z 29003KT 03/M00 A3017 RMK A01 T00301004  RH  079%=      5-min Rain = 0
KSP1 150110Z 30003KT 03/M01 A3017 RMK A01 T00281005  RH  080%=      5-min Rain = 0
KSP1 150115Z 30003KT 03/M01 A3017 RMK A01 T00251007  RH  080%=      5-min Rain = 0
KSP1 150120Z 31003KT 02/M01 A3017 RMK A01 T00231007  RH  081%=      5-min Rain = 0
KSP1 150125Z 31003KT 02/M01 A3017 RMK A01 T00211008  RH  082%=      5-min Rain = 0
KSP1 150130Z 31002KT 02/M01 A3017 RMK A01 T00191008  RH  083%=      5-min Rain = 0
KSP1 150135Z 30003KT 02/M01 A3017 RMK A01 T00171009  RH  083%=      5-min Rain = 0
KSP1 150140Z 30003KT 02/M01 A3017 RMK A01 T00161009  RH  084%=      5-min Rain = 0
KSP1 150145Z 30003KT 02/M01 A3017 RMK A01 T00151009  RH  084%=      5-min Rain = 0
KSP1 150150Z 30003KT 01/M01 A3017 RMK A01 T00141010  RH  085%=      5-min Rain = 0
KSP1 150155Z 31004KT 01/M01 A3017 RMK A01 T00131010  RH  086%=      5-min Rain = 0
KSP1 150200Z 32004KT 01/M01 A3017 RMK A01 T00131010  RH  085%=      5-min Rain = 0
KSP1 150205Z 31003KT 01/M01 A3017 RMK A01 T00121011  RH  086%=      5-min Rain = 0
KSP1 150210Z 32003KT 01/M01 A3017 RMK A01 T00121011  RH  086%=      5-min Rain = 0
KSP1 150215Z 33002KT 01/M01 A3017 RMK A01 T00091014  RH  085%=      5-min Rain = 0
KSP1 150220Z 33002KT 01/M01 A3017 RMK A01 T00081013  RH  086%=      5-min Rain = 0
KSP1 150225Z 33003KT 01/M01 A3017 RMK A01 T00081013  RH  087%=      5-min Rain = 0
KSP1 150230Z 34003KT 01/M02 A3017 RMK A01 T00051015  RH  087%=      5-min Rain = 0
KSP1 150235Z 34003KT 01/M01 A3017 RMK A01 T00051013  RH  088%=      5-min Rain = 0
KSP1 150240Z 34004KT 00/M02 A3017 RMK A01 T00021016  RH  089%=      5-min Rain = 0
KSP1 150245Z 34003KT 00/02 A3017 RMK A01 T00000-16  RH  089%=      5-min Rain = 0
KSP1 150250Z 34003KT 00/02 A3017 RMK A01 T00000-15  RH  090%=      5-min Rain = 0
KSP1 150255Z 35002KT 00/02 A3016 RMK A01 T00000-15  RH  090%=      5-min Rain = 0
KSP1 150300Z 33004KT 00/02 A3017 RMK A01 T00000-15  RH  091%=      5-min Rain = 0
KSP1 150305Z 34004KT M00/M02 A3016 RMK A01 T10021017  RH  090%=      5-min Rain = 0
KSP1 150310Z 34003KT M00/M02 A3016 RMK A01 T10041019  RH  091%=      5-min Rain = 0
KSP1 150315Z 34002KT M01/M02 A3016 RMK A01 T10051019  RH  091%=      5-min Rain = 0
KSP1 150320Z 30001KT M00/M02 A3016 RMK A01 T10041018  RH  091%=      5-min Rain = 0
KSP1 150325Z 31002KT M00/M02 A3016 RMK A01 T10041018  RH  091%=      5-min Rain = 0
KSP1 150330Z 32004KT M01/M02 A3016 RMK A01 T10051019  RH  091%=      5-min Rain = 0
KSP1 150335Z 31003KT M01/M02 A3016 RMK A01 T10061019  RH  092%=      5-min Rain = 0
KSP1 150340Z 32004KT M01/M02 A3016 RMK A01 T10051018  RH  092%=      5-min Rain = 0
KSP1 150345Z 31002KT M00/M02 A3016 RMK A01 T10041017  RH  092%=      5-min Rain = 0
KSP1 150350Z 31001KT M01/M02 A3016 RMK A01 T10061019  RH  091%=      5-min Rain = 0
KSP1 150355Z 32002KT M01/M02 A3016 RMK A01 T10081022  RH  091%=      5-min Rain = 0
KSP1 150400Z 33003KT M01/M02 A3016 RMK A01 T10101024  RH  091%=      5-min Rain = 0
KSP1 150405Z 32004KT M01/M02 A3016 RMK A01 T10101022  RH  092%=      5-min Rain = 0
KSP1 150410Z 34003KT M01/M02 A3016 RMK A01 T10101022  RH  092%=      5-min Rain = 0
KSP1 150415Z 33004KT M01/M02 A3016 RMK A01 T10091021  RH  093%=      5-min Rain = 0
KSP1 150420Z 33005KT M01/M02 A3017 RMK A01 T10101022  RH  092%=      5-min Rain = 0
KSP1 150425Z 33005KT M01/M02 A3016 RMK A01 T10121024  RH  092%=      5-min Rain = 0
KSP1 150430Z 33004KT M01/M03 A3016 RMK A01 T10131025  RH  092%=      5-min Rain = 0
KSP1 150435Z 32004KT M01/M03 A3016 RMK A01 T10131025  RH  093%=      5-min Rain = 0
KSP1 150440Z 33003KT M01/M03 A3016 RMK A01 T10141025  RH  093%=      5-min Rain = 0
KSP1 150445Z 33002KT M01/M03 A3016 RMK A01 T10141026  RH  093%=      5-min Rain = 0
KSP1 150450Z 33002KT M01/M03 A3015 RMK A01 T10141025  RH  093%=      5-min Rain = 0
KSP1 150455Z 30003KT M01/M02 A3016 RMK A01 T10131024  RH  093%=      5-min Rain = 0
KSP1 150500Z 30003KT M02/M03 A3015 RMK A01 T10151026  RH  092%=      5-min Rain = 0
KSP1 150505Z 30003KT M02/M03 A3015 RMK A01 T10161027  RH  093%=      5-min Rain = 0
KSP1 150510Z 30003KT M02/M03 A3015 RMK A01 T10161026  RH  093%=      5-min Rain = 0
KSP1 150515Z 31002KT M02/M03 A3014 RMK A01 T10151025  RH  093%=      5-min Rain = 0
KSP1 150520Z 30001KT M01/M03 A3014 RMK A01 T10141025  RH  093%=      5-min Rain = 0
KSP1 150525Z 28001KT M02/M03 A3014 RMK A01 T10151025  RH  093%=      5-min Rain = 0
KSP1 150530Z 25001KT M01/M02 A3014 RMK A01 T10141024  RH  093%=      5-min Rain = 0
KSP1 150535Z 21002KT M01/M02 A3014 RMK A01 T10131024  RH  093%=      5-min Rain = 0
KSP1 150540Z 21003KT M01/M03 A3014 RMK A01 T10141025  RH  093%=      5-min Rain = 0
KSP1 150545Z 22003KT M02/M03 A3014 RMK A01 T10161027  RH  093%=      5-min Rain = 0
KSP1 150550Z 22002KT M02/M03 A3014 RMK A01 T10171029  RH  093%=      5-min Rain = 0
KSP1 150555Z 21002KT M02/M03 A3014 RMK A01 T10191030  RH  092%=      5-min Rain = 0

Page generated in 0.0093 seconds.